createdAt,value
2018-12-19T00:02:13.470Z,102535.48
2018-12-19T00:04:47.190Z,102541.85
2018-12-19T00:07:16.826Z,102536.03
2018-12-19T00:09:47.805Z,102534.92
2018-12-19T00:12:18.799Z,102529.51
2018-12-19T00:14:49.790Z,102527.59
2018-12-19T00:17:20.939Z,102522.42
2018-12-19T00:19:52.160Z,102524.13
2018-12-19T00:22:23.471Z,102518.45
2018-12-19T00:24:56.795Z,102515.97
2018-12-19T00:27:28.390Z,102516.54
2018-12-19T00:29:59.675Z,102515.91
2018-12-19T00:32:30.811Z,102519.85
2018-12-19T00:35:04.060Z,102510.29
2018-12-19T00:37:37.720Z,102504.55
2018-12-19T00:40:11.630Z,102505.89
2018-12-19T00:42:45.602Z,102504.85
2018-12-19T00:45:17.436Z,102509.66
2018-12-19T00:47:50.622Z,102504.37
2018-12-19T00:50:20.307Z,102508.23
2018-12-19T00:52:53.880Z,102510.11
2018-12-19T00:55:25.514Z,102516.59
2018-12-19T00:57:59.070Z,102509.39
2018-12-19T01:00:28.891Z,102509.33
2018-12-19T01:03:00.155Z,102510.89
2018-12-19T01:05:31.598Z,102512.80
2018-12-19T01:08:04.829Z,102505.42
2018-12-19T01:10:36.623Z,102510.98
2018-12-19T01:13:12.026Z,102510.95
2018-12-19T01:15:46.167Z,102503.53
2018-12-19T01:18:19.162Z,102506.55
2018-12-19T01:20:50.150Z,102502.46
2018-12-19T01:23:23.547Z,102501.36
2018-12-19T01:25:55.445Z,102498.09
2018-12-19T01:28:28.463Z,102502.46
2018-12-19T01:31:00.347Z,102500.58
2018-12-19T01:33:31.463Z,102497.20
2018-12-19T01:36:03.003Z,102499.62
2018-12-19T01:38:34.122Z,102495.59
2018-12-19T01:41:03.427Z,102493.20
2018-12-19T01:43:34.583Z,102493.89
2018-12-19T01:46:08.218Z,102492.55
2018-12-19T01:48:38.260Z,102488.12
2018-12-19T01:51:10.216Z,102485.09
2018-12-19T01:53:43.449Z,102479.75
2018-12-19T01:56:17.440Z,102483.13
2018-12-19T01:58:49.103Z,102486.09
2018-12-19T02:01:20.344Z,102490.23
2018-12-19T02:03:49.472Z,102486.41
2018-12-19T02:06:23.019Z,102490.59
2018-12-19T02:08:54.755Z,102487.43
2018-12-19T02:11:24.094Z,102483.87
2018-12-19T02:13:57.482Z,102482.08
2018-12-19T02:16:28.606Z,102481.93
2018-12-19T02:19:01.927Z,102478.41
2018-12-19T02:21:35.884Z,102465.78
2018-12-19T02:24:06.854Z,102486.27
2018-12-19T02:26:37.942Z,102486.53
2018-12-19T02:29:09.011Z,102477.84
2018-12-19T02:31:42.412Z,102477.59
2018-12-19T02:34:13.379Z,102467.37
2018-12-19T02:36:47.012Z,102463.52
2018-12-19T02:39:20.131Z,102458.77
2018-12-19T02:41:51.110Z,102466.68
2018-12-19T02:44:21.998Z,102466.73
2018-12-19T02:46:51.458Z,102463.02
2018-12-19T02:49:22.768Z,102465.06
2018-12-19T02:51:54.186Z,102467.58
2018-12-19T02:54:25.239Z,102467.23
2018-12-19T02:56:58.798Z,102469.03
2018-12-19T02:59:33.644Z,102470.80
2018-12-19T03:02:03.642Z,102465.95
2018-12-19T03:04:35.340Z,102464.16
2018-12-19T03:07:04.498Z,102470.45
2018-12-19T03:09:35.701Z,102463.30
2018-12-19T03:12:07.158Z,102465.20
2018-12-19T03:14:38.091Z,102468.47
2018-12-19T03:17:11.358Z,102468.86
2018-12-19T03:19:42.382Z,102471.38
2018-12-19T03:22:13.360Z,102465.06
2018-12-19T03:24:42.640Z,102466.04
2018-12-19T03:27:13.630Z,102463.47
2018-12-19T03:29:47.130Z,102466.80
2018-12-19T03:32:19.080Z,102457.55
2018-12-19T03:34:50.134Z,102455.36
2018-12-19T03:37:21.503Z,102446.31
2018-12-19T03:39:52.650Z,102441.47
2018-12-19T03:42:23.890Z,102441.87
2018-12-19T03:44:55.017Z,102443.37
2018-12-19T03:47:28.635Z,102442.43
2018-12-19T03:50:00.334Z,102444.63
2018-12-19T03:52:33.951Z,102447.85
2018-12-19T03:55:03.474Z,102450.62
2018-12-19T03:57:35.662Z,102444.10
2018-12-19T04:00:07.646Z,102449.83
2018-12-19T04:02:38.880Z,102446.37
2018-12-19T04:05:12.132Z,102447.67
2018-12-19T04:07:43.848Z,102445.72
2018-12-19T04:10:13.072Z,102447.88
2018-12-19T04:12:42.234Z,102443.98
2018-12-19T04:15:16.106Z,102438.66
2018-12-19T04:17:49.666Z,102443.78
2018-12-19T04:20:20.742Z,102441.66
2018-12-19T04:22:52.060Z,102442.25
2018-12-19T04:25:23.408Z,102444.06
2018-12-19T04:27:55.162Z,102440.89
2018-12-19T04:30:26.900Z,102443.70
2018-12-19T04:32:59.147Z,102444.30
2018-12-19T04:35:30.525Z,102440.68
2018-12-19T04:38:03.290Z,102442.38
2018-12-19T04:40:35.102Z,102441.20
2018-12-19T04:43:06.963Z,102435.68
2018-12-19T04:45:38.568Z,102438.34
2018-12-19T04:48:09.531Z,102439.05
2018-12-19T04:50:43.391Z,102437.90
2018-12-19T04:53:14.946Z,102442.13
2018-12-19T04:55:50.824Z,102441.45
2018-12-19T04:58:23.359Z,102440.60
2018-12-19T05:00:59.515Z,102438.52
2018-12-19T05:03:30.604Z,102441.52
2018-12-19T05:06:03.379Z,102436.78
2018-12-19T05:08:35.396Z,102445.92
2018-12-19T05:11:09.492Z,102437.00
2018-12-19T05:13:42.257Z,102439.55
2018-12-19T05:16:14.368Z,102437.58
2018-12-19T05:18:46.631Z,102436.36
2018-12-19T05:21:19.019Z,102432.91
2018-12-19T05:23:50.715Z,102428.77
2018-12-19T05:26:24.965Z,102435.67
2018-12-19T05:28:59.749Z,102431.80
2018-12-19T05:31:32.124Z,102423.62
2018-12-19T05:34:03.529Z,102426.09
2018-12-19T05:36:37.248Z,102423.17
2018-12-19T05:39:11.244Z,102424.38
2018-12-19T05:41:43.183Z,102418.73
2018-12-19T05:44:17.639Z,102428.27
2018-12-19T05:46:50.023Z,102415.08
2018-12-19T05:49:22.141Z,102417.61
2018-12-19T05:51:56.352Z,102416.32
2018-12-19T05:54:30.124Z,102407.33
2018-12-19T05:57:08.035Z,102408.88
2018-12-19T05:59:42.349Z,102405.11
2018-12-19T06:02:22.276Z,102409.53
2018-12-19T06:04:55.362Z,102405.71
2018-12-19T06:07:31.407Z,102419.83
2018-12-19T06:10:05.307Z,102415.35
2018-12-19T06:12:47.819Z,102419.38
2018-12-19T06:18:24.573Z,102427.63
2018-12-19T06:20:59.828Z,102419.80
2018-12-19T06:23:36.328Z,102419.59
2018-12-19T06:26:08.060Z,102426.72
2018-12-19T06:28:39.647Z,102425.23
2018-12-19T06:31:13.782Z,102421.25
2018-12-19T06:33:45.743Z,102418.39
2018-12-19T06:36:19.470Z,102427.48
2018-12-19T06:39:02.232Z,102427.92
2018-12-19T06:41:36.502Z,102422.56
2018-12-19T06:44:10.586Z,102422.88
2018-12-19T06:46:44.299Z,102428.39
2018-12-19T06:49:18.518Z,102421.17
2018-12-19T06:51:49.972Z,102421.59
2018-12-19T06:54:24.131Z,102426.86
2018-12-19T06:56:58.239Z,102431.66
2018-12-19T06:59:32.834Z,102427.34
2018-12-19T07:02:04.015Z,102428.83
2018-12-19T07:04:37.490Z,102426.91
2018-12-19T07:07:16.459Z,102429.62
2018-12-19T07:10:04.572Z,102426.22
2018-12-19T07:12:36.233Z,102430.48
2018-12-19T07:15:07.391Z,102425.27
2018-12-19T07:17:49.523Z,102432.16
2018-12-19T07:20:21.859Z,102427.50
2018-12-19T07:25:31.428Z,102434.63
2018-12-19T07:28:03.328Z,102439.25
2018-12-19T07:30:33.538Z,102434.95
2018-12-19T07:33:03.282Z,102432.09
2018-12-19T07:35:35.206Z,102430.00
2018-12-19T07:38:07.331Z,102433.06
2018-12-19T07:40:45.652Z,102426.75
2018-12-19T07:43:23.936Z,102429.80
2018-12-19T07:45:56.498Z,102441.34
2018-12-19T07:48:28.198Z,102435.79
2018-12-19T07:51:00.400Z,102443.16
2018-12-19T07:53:35.434Z,102438.45
2018-12-19T07:56:07.830Z,102436.73
2018-12-19T07:58:42.092Z,102436.52
2018-12-19T08:01:14.368Z,102428.97
2018-12-19T08:03:46.167Z,102436.67
2018-12-19T08:06:21.518Z,102434.14
2018-12-19T08:08:54.178Z,102432.41
2018-12-19T08:11:27.988Z,102429.52
2018-12-19T08:13:59.497Z,102427.64
2018-12-19T08:16:33.212Z,102425.89
2018-12-19T08:19:06.499Z,102427.11
2018-12-19T08:21:39.108Z,102425.08
2018-12-19T08:24:11.226Z,102429.64
2018-12-19T08:26:43.571Z,102432.19
2018-12-19T08:29:13.603Z,102428.83
2018-12-19T08:34:26.248Z,102432.84
